createdAt,value
2022-11-26T00:00:55.259Z,11.47
2022-11-26T00:03:23.235Z,13.13
2022-11-26T00:05:54.491Z,11.20
2022-11-26T00:08:28.110Z,7.63
2022-11-26T00:10:55.241Z,14.80
2022-11-26T00:13:27.174Z,14.90
2022-11-26T00:15:54.473Z,19.40
2022-11-26T00:18:23.543Z,15.53
2022-11-26T00:20:56.163Z,15.30
2022-11-26T00:23:26.200Z,18.30
2022-11-26T00:25:59.678Z,16.83
2022-11-26T00:28:32.602Z,17.73
2022-11-26T00:31:19.980Z,8.63
2022-11-26T00:33:47.170Z,13.67
2022-11-26T00:36:22.028Z,9.73
2022-11-26T00:38:53.789Z,14.10
2022-11-26T00:41:23.618Z,14.87
2022-11-26T00:43:50.509Z,16.17
2022-11-26T00:46:20.397Z,10.00
2022-11-26T00:48:47.415Z,11.60
2022-11-26T00:51:18.275Z,11.07
2022-11-26T00:53:46.145Z,14.47
2022-11-26T00:56:19.007Z,12.97
2022-11-26T00:58:48.045Z,17.30
2022-11-26T01:01:19.217Z,16.10
2022-11-26T01:03:46.277Z,12.87
2022-11-26T01:06:28.632Z,11.67
2022-11-26T01:08:55.462Z,14.20
2022-11-26T01:11:24.660Z,10.90
2022-11-26T01:13:54.289Z,10.77
2022-11-26T01:16:27.888Z,13.70
2022-11-26T01:18:57.648Z,9.73
2022-11-26T01:21:31.112Z,9.43
2022-11-26T01:23:57.887Z,10.70
2022-11-26T01:26:27.989Z,12.73
2022-11-26T01:28:55.692Z,12.57
2022-11-26T01:31:25.200Z,8.40
2022-11-26T01:33:52.131Z,7.53
2022-11-26T01:36:22.426Z,13.33
2022-11-26T01:38:49.348Z,11.30
2022-11-26T01:41:54.490Z,15.00
2022-11-26T01:44:30.976Z,14.13
2022-11-26T01:46:59.152Z,14.30
2022-11-26T01:49:29.055Z,10.80
2022-11-26T01:51:55.745Z,6.17
2022-11-26T01:54:22.821Z,12.17
2022-11-26T01:56:56.001Z,17.10
2022-11-26T01:59:28.139Z,11.93
2022-11-26T02:01:58.401Z,13.17
2022-11-26T02:04:35.171Z,15.33
2022-11-26T02:07:02.149Z,10.90
2022-11-26T02:09:30.157Z,12.07
2022-11-26T02:11:57.253Z,9.17
2022-11-26T02:14:28.489Z,12.33
2022-11-26T02:17:19.315Z,5.90
2022-11-26T02:19:54.575Z,10.17
2022-11-26T02:22:44.185Z,14.10
2022-11-26T02:25:35.858Z,13.50
2022-11-26T02:28:11.429Z,13.67
2022-11-26T02:30:51.462Z,8.33
2022-11-26T02:33:45.439Z,7.93
2022-11-26T02:36:33.641Z,9.77
2022-11-26T02:39:15.270Z,12.10
2022-11-26T02:41:53.277Z,9.23
2022-11-26T02:44:33.994Z,12.30
2022-11-26T02:47:08.113Z,7.87
2022-11-26T02:49:37.948Z,8.53
2022-11-26T02:52:06.358Z,5.40
2022-11-26T02:54:36.273Z,6.17
2022-11-26T02:57:06.524Z,11.67
2022-11-26T02:59:34.207Z,9.43
2022-11-26T03:02:07.357Z,11.50
2022-11-26T03:04:38.865Z,13.63
2022-11-26T03:07:07.261Z,9.10
2022-11-26T03:10:02.233Z,7.13
2022-11-26T03:12:29.806Z,11.50
2022-11-26T03:14:56.576Z,9.77
2022-11-26T03:17:23.351Z,14.13
2022-11-26T03:19:50.614Z,8.13
2022-11-26T03:22:17.718Z,11.87
2022-11-26T03:24:44.499Z,8.50
2022-11-26T03:27:11.334Z,8.93
2022-11-26T03:29:38.090Z,10.43
2022-11-26T03:32:05.095Z,9.50
2022-11-26T03:34:31.968Z,6.77
2022-11-26T03:36:59.729Z,6.17
2022-11-26T03:39:26.470Z,13.77
2022-11-26T03:41:53.200Z,8.70
2022-11-26T03:44:19.982Z,10.90
2022-11-26T03:46:46.729Z,5.23
2022-11-26T03:49:13.439Z,11.07
2022-11-26T03:51:40.197Z,11.23
2022-11-26T03:54:07.164Z,8.77
2022-11-26T03:56:33.950Z,8.13
2022-11-26T03:59:00.702Z,6.73
2022-11-26T04:01:27.519Z,8.80
2022-11-26T04:03:54.284Z,10.03
2022-11-26T04:06:21.070Z,11.43
2022-11-26T04:08:47.814Z,10.93
2022-11-26T04:11:15.482Z,11.57
2022-11-26T04:13:42.418Z,16.90
2022-11-26T04:16:09.885Z,9.57
2022-11-26T04:18:36.802Z,12.03
2022-11-26T04:21:06.614Z,8.57
2022-11-26T04:23:33.686Z,11.73
2022-11-26T04:26:00.465Z,14.30
2022-11-26T04:28:27.509Z,7.00
2022-11-26T04:30:54.255Z,9.83
2022-11-26T04:33:21.435Z,9.33
2022-11-26T04:35:49.569Z,14.47
2022-11-26T04:38:16.406Z,9.80
2022-11-26T04:40:43.176Z,10.33
2022-11-26T04:43:09.998Z,13.50
2022-11-26T04:45:36.796Z,12.77
2022-11-26T04:48:03.635Z,17.47
2022-11-26T04:50:31.637Z,11.50
2022-11-26T04:52:58.411Z,7.17
2022-11-26T04:55:25.260Z,6.83
2022-11-26T04:57:51.987Z,8.47
2022-11-26T05:00:19.659Z,12.67
2022-11-26T05:02:46.431Z,8.77
2022-11-26T05:05:13.420Z,9.80
2022-11-26T05:07:40.682Z,7.87
2022-11-26T05:10:08.804Z,13.00
2022-11-26T05:12:36.482Z,12.87
2022-11-26T05:15:04.528Z,12.13
2022-11-26T05:17:32.046Z,9.03
2022-11-26T05:19:58.796Z,7.50
2022-11-26T05:22:25.628Z,9.60
2022-11-26T05:24:52.396Z,13.93
2022-11-26T05:27:19.112Z,15.00
2022-11-26T05:29:45.861Z,18.23
2022-11-26T05:32:12.643Z,13.17
2022-11-26T05:34:39.555Z,10.00
2022-11-26T05:37:06.417Z,8.60
2022-11-26T05:39:33.343Z,11.50
2022-11-26T05:42:03.612Z,9.90
2022-11-26T05:44:34.077Z,11.77
2022-11-26T05:47:00.765Z,12.00
2022-11-26T05:49:27.650Z,13.50
2022-11-26T05:51:54.435Z,15.17
2022-11-26T05:54:22.318Z,9.73
2022-11-26T05:56:49.030Z,14.30
2022-11-26T05:59:15.772Z,15.10
2022-11-26T06:01:42.536Z,8.83
2022-11-26T06:04:09.288Z,15.40
2022-11-26T06:06:36.144Z,13.77
2022-11-26T06:09:03.911Z,11.07
2022-11-26T06:11:31.665Z,18.47
2022-11-26T06:13:58.390Z,12.60
2022-11-26T06:16:25.126Z,13.83
2022-11-26T06:18:51.968Z,11.80
2022-11-26T06:21:19.052Z,9.17
2022-11-26T06:23:54.312Z,10.07
2022-11-26T06:26:24.917Z,15.57
2022-11-26T06:28:51.627Z,12.83
2022-11-26T06:31:18.463Z,12.93
2022-11-26T06:33:45.308Z,10.30
2022-11-26T06:36:12.082Z,10.87
2022-11-26T06:38:38.871Z,11.73
2022-11-26T06:41:07.898Z,7.73
2022-11-26T06:43:35.688Z,7.70
2022-11-26T06:46:04.593Z,11.33
2022-11-26T06:48:31.910Z,7.57
2022-11-26T06:51:12.229Z,22.07
2022-11-26T06:53:39.742Z,19.10
2022-11-26T06:56:14.831Z,11.83
2022-11-26T06:58:46.255Z,12.23
2022-11-26T07:01:19.505Z,13.77
2022-11-26T07:03:47.085Z,12.20
2022-11-26T07:06:29.310Z,17.17
2022-11-26T07:08:57.811Z,16.63
2022-11-26T07:11:25.768Z,14.93
2022-11-26T07:13:52.922Z,17.33
2022-11-26T07:16:20.361Z,11.63
2022-11-26T07:18:55.217Z,10.77
2022-11-26T07:21:25.420Z,13.43
2022-11-26T07:23:53.206Z,22.13
2022-11-26T07:26:21.693Z,19.60
2022-11-26T07:28:49.002Z,15.73
2022-11-26T07:31:18.922Z,11.90
2022-11-26T07:33:47.002Z,16.27
2022-11-26T07:36:22.610Z,15.20
2022-11-26T07:38:49.547Z,13.13
2022-11-26T07:41:18.979Z,16.20
2022-11-26T07:43:46.625Z,17.83
2022-11-26T07:46:16.563Z,9.77
2022-11-26T07:48:44.305Z,19.03
2022-11-26T07:51:29.468Z,18.57
2022-11-26T07:53:58.262Z,21.07
2022-11-26T07:56:25.399Z,21.97
2022-11-26T07:58:52.169Z,24.03
2022-11-26T08:01:21.825Z,22.83
2022-11-26T08:03:50.458Z,18.23
2022-11-26T08:06:25.132Z,16.57
2022-11-26T08:08:52.075Z,18.90
2022-11-26T08:11:24.318Z,17.80
2022-11-26T08:13:56.912Z,20.53
2022-11-26T08:16:23.900Z,17.00
2022-11-26T08:18:55.201Z,18.53
2022-11-26T08:21:22.545Z,14.63
2022-11-26T08:23:49.466Z,17.07
2022-11-26T08:26:36.155Z,20.80
2022-11-26T08:29:03.892Z,14.80
2022-11-26T08:31:31.247Z,15.00
2022-11-26T08:33:59.355Z,17.20
2022-11-26T08:36:30.410Z,14.80
2022-11-26T08:38:58.204Z,13.63
2022-11-26T08:41:25.068Z,15.13
2022-11-26T08:44:06.100Z,15.03
2022-11-26T08:46:39.633Z,13.70
2022-11-26T08:49:08.415Z,11.87
2022-11-26T08:51:35.320Z,14.93
2022-11-26T08:54:02.662Z,13.23
2022-11-26T08:56:29.732Z,12.67
2022-11-26T08:58:56.703Z,18.37
2022-11-26T09:01:26.420Z,12.57
2022-11-26T09:03:55.840Z,13.33
2022-11-26T09:06:24.695Z,14.70
2022-11-26T09:09:10.383Z,12.50
2022-11-26T09:11:40.539Z,12.13
2022-11-26T09:14:07.624Z,15.20
2022-11-26T09:16:34.590Z,10.90
2022-11-26T09:19:03.084Z,11.50
2022-11-26T09:21:30.046Z,12.60
2022-11-26T09:23:56.819Z,12.50
2022-11-26T09:26:25.279Z,15.33
2022-11-26T09:28:52.471Z,11.50
2022-11-26T09:31:20.904Z,14.20
2022-11-26T09:33:47.989Z,11.27
2022-11-26T09:36:15.775Z,11.67
2022-11-26T09:38:43.229Z,11.10
2022-11-26T09:41:41.130Z,14.10
2022-11-26T09:44:13.833Z,14.27
2022-11-26T09:47:10.381Z,11.17
2022-11-26T09:49:59.479Z,12.13
2022-11-26T09:52:33.696Z,12.53
2022-11-26T09:55:38.794Z,14.17
2022-11-26T09:58:29.429Z,14.30
2022-11-26T10:00:59.277Z,10.70
2022-11-26T10:03:36.721Z,11.57
2022-11-26T10:06:27.723Z,9.67
2022-11-26T10:09:48.889Z,11.83
2022-11-26T10:13:11.214Z,12.20
2022-11-26T10:15:43.840Z,12.20
2022-11-26T10:18:47.649Z,12.30
2022-11-26T10:21:27.311Z,14.90
2022-11-26T10:24:10.115Z,16.37
2022-11-26T10:26:39.604Z,12.37
2022-11-26T10:29:26.542Z,10.27
2022-11-26T10:32:10.516Z,10.70
2022-11-26T10:34:51.314Z,9.33
2022-11-26T10:37:19.628Z,9.80
2022-11-26T10:39:46.538Z,11.17
2022-11-26T10:42:22.233Z,10.93
2022-11-26T10:44:53.904Z,14.77
2022-11-26T10:47:28.046Z,10.80
2022-11-26T10:50:32.211Z,13.43
2022-11-26T10:53:05.491Z,15.10
2022-11-26T10:55:41.372Z,16.50
2022-11-26T10:58:17.013Z,14.93
2022-11-26T11:00:49.852Z,9.33
2022-11-26T11:03:44.555Z,8.63
2022-11-26T11:06:19.645Z,12.50
2022-11-26T11:08:48.032Z,9.07
2022-11-26T11:11:29.966Z,10.47
2022-11-26T11:13:57.926Z,11.83
2022-11-26T11:16:46.173Z,8.33
2022-11-26T11:19:31.955Z,8.90
2022-11-26T11:21:58.808Z,8.97
2022-11-26T11:24:28.288Z,8.50
2022-11-26T11:27:00.278Z,9.93
2022-11-26T11:29:33.995Z,8.97
2022-11-26T11:32:04.631Z,8.27
2022-11-26T11:34:39.843Z,13.27
2022-11-26T11:37:17.126Z,6.33
2022-11-26T11:39:44.748Z,5.20
2022-11-26T11:42:21.648Z,6.03
2022-11-26T11:44:51.025Z,3.93
2022-11-26T11:47:33.920Z,4.10
2022-11-26T11:50:23.375Z,6.57
2022-11-26T11:53:06.343Z,6.93
2022-11-26T11:55:48.150Z,4.53
2022-11-26T11:58:43.391Z,5.47
2022-11-26T12:01:36.204Z,7.53
2022-11-26T12:04:40.401Z,7.00
2022-11-26T12:07:34.466Z,5.97
2022-11-26T12:10:19.409Z,7.30
2022-11-26T12:12:52.844Z,5.03
2022-11-26T12:15:36.062Z,3.80
2022-11-26T12:18:41.761Z,5.83
2022-11-26T12:21:12.757Z,3.47
2022-11-26T12:23:53.046Z,6.53
2022-11-26T12:26:28.184Z,3.90
2022-11-26T12:29:03.365Z,3.87
2022-11-26T12:31:37.927Z,5.63
2022-11-26T12:34:33.004Z,5.47
2022-11-26T12:37:19.324Z,4.47
2022-11-26T12:40:03.429Z,5.63
2022-11-26T12:42:51.304Z,10.90
2022-11-26T12:45:26.519Z,9.17
2022-11-26T12:48:03.124Z,12.90
2022-11-26T12:50:39.518Z,6.73
2022-11-26T12:53:09.282Z,6.87
2022-11-26T12:55:45.844Z,5.47
2022-11-26T12:58:12.554Z,6.30
2022-11-26T13:00:39.559Z,5.37
2022-11-26T13:03:07.049Z,4.00
2022-11-26T13:05:55.923Z,3.63
2022-11-26T13:08:53.557Z,7.30
2022-11-26T13:11:31.799Z,8.23
2022-11-26T13:14:09.928Z,5.00
2022-11-26T13:16:43.109Z,4.03
2022-11-26T13:19:24.146Z,4.40
2022-11-26T13:22:30.636Z,4.60
2022-11-26T13:25:03.360Z,4.00
2022-11-26T13:27:49.276Z,5.43
2022-11-26T13:30:31.944Z,3.93
2022-11-26T13:33:23.249Z,9.60
2022-11-26T13:36:27.258Z,6.60
2022-11-26T13:39:04.131Z,4.20
2022-11-26T13:41:48.771Z,7.80
2022-11-26T13:44:34.412Z,11.37
2022-11-26T13:47:08.662Z,4.97
2022-11-26T13:49:44.040Z,5.93
2022-11-26T13:52:29.335Z,6.80
2022-11-26T13:55:07.312Z,4.80
2022-11-26T13:57:41.016Z,5.30
2022-11-26T14:00:09.221Z,7.07
2022-11-26T14:02:44.162Z,3.53
2022-11-26T14:05:13.879Z,6.80
2022-11-26T14:07:41.605Z,5.90
2022-11-26T14:10:31.591Z,10.10
2022-11-26T14:13:04.704Z,4.83
2022-11-26T14:15:40.730Z,4.53
2022-11-26T14:18:42.700Z,3.27
2022-11-26T14:21:21.619Z,4.17
2022-11-26T14:23:50.899Z,4.80
2022-11-26T14:26:37.665Z,7.03
2022-11-26T14:29:11.937Z,3.33
2022-11-26T14:31:54.478Z,4.40
2022-11-26T14:34:42.407Z,5.37
2022-11-26T14:37:14.600Z,3.43
2022-11-26T14:39:41.684Z,5.07
2022-11-26T14:42:19.857Z,4.40
2022-11-26T14:44:46.790Z,6.67
2022-11-26T14:47:20.499Z,4.87
2022-11-26T14:50:00.958Z,2.90
2022-11-26T14:52:34.997Z,5.33
2022-11-26T14:55:15.625Z,3.30
2022-11-26T14:57:43.499Z,2.80
2022-11-26T15:00:16.613Z,4.20
2022-11-26T15:02:48.539Z,2.70
2022-11-26T15:05:30.876Z,3.10
2022-11-26T15:08:01.756Z,1.63
2022-11-26T15:10:52.790Z,3.30
2022-11-26T15:13:33.866Z,2.83
2022-11-26T15:16:03.811Z,4.63
2022-11-26T15:18:34.321Z,3.07
2022-11-26T15:21:04.000Z,3.67
2022-11-26T15:23:39.282Z,2.23
2022-11-26T15:26:06.430Z,1.33
2022-11-26T15:28:38.697Z,2.97
2022-11-26T15:31:10.019Z,2.17
2022-11-26T15:33:39.223Z,7.03
2022-11-26T15:36:07.701Z,3.47
2022-11-26T15:38:38.082Z,4.37
2022-11-26T15:41:08.399Z,3.57
2022-11-26T15:43:45.361Z,2.13
2022-11-26T15:46:34.571Z,1.77
2022-11-26T15:49:07.640Z,3.17
2022-11-26T15:51:44.222Z,2.17
2022-11-26T15:54:49.510Z,3.37
2022-11-26T15:57:36.753Z,3.57
2022-11-26T16:00:09.652Z,2.87
2022-11-26T16:02:39.065Z,3.60
2022-11-26T16:05:40.052Z,3.57
2022-11-26T16:08:30.391Z,4.20
2022-11-26T16:11:21.466Z,5.67
2022-11-26T16:13:48.286Z,4.30
2022-11-26T16:16:21.575Z,5.07
2022-11-26T16:18:59.753Z,6.70
2022-11-26T16:21:29.507Z,5.73
2022-11-26T16:23:59.192Z,22.93
2022-11-26T16:26:26.822Z,12.50
2022-11-26T16:28:53.943Z,14.10
2022-11-26T16:31:21.588Z,13.30
2022-11-26T16:33:49.455Z,13.93
2022-11-26T16:36:20.723Z,15.27
2022-11-26T16:38:48.183Z,15.40
2022-11-26T16:41:16.482Z,14.50
2022-11-26T16:43:43.226Z,16.97
2022-11-26T16:46:18.401Z,17.93
2022-11-26T16:48:46.444Z,15.57
2022-11-26T16:51:13.591Z,18.57
2022-11-26T16:53:40.734Z,15.30
2022-11-26T16:56:22.432Z,12.87
2022-11-26T16:58:50.957Z,16.00
2022-11-26T17:01:17.760Z,16.40
2022-11-26T17:03:44.686Z,18.53
2022-11-26T17:06:15.492Z,12.50
2022-11-26T17:11:29.273Z,12.43
2022-11-26T17:13:56.128Z,8.80
2022-11-26T17:16:23.646Z,9.67
2022-11-26T17:18:50.668Z,8.43
2022-11-26T17:21:17.423Z,7.50
2022-11-26T17:23:44.218Z,7.20
2022-11-26T17:26:29.143Z,7.17
2022-11-26T17:28:55.868Z,7.43
2022-11-26T17:31:23.684Z,7.47
2022-11-26T17:33:51.099Z,6.00
2022-11-26T17:36:20.565Z,4.90
2022-11-26T17:38:47.655Z,9.33
2022-11-26T17:41:14.685Z,11.17
2022-11-26T17:43:42.187Z,8.50
2022-11-26T17:46:18.127Z,11.70
2022-11-26T17:48:45.453Z,10.63
2022-11-26T17:51:14.393Z,7.07
2022-11-26T17:53:42.212Z,7.73
2022-11-26T17:56:20.181Z,9.37
2022-11-26T17:58:47.586Z,9.73
2022-11-26T18:01:15.749Z,8.83
2022-11-26T18:03:43.778Z,7.63
2022-11-26T18:06:18.731Z,7.23
2022-11-26T18:08:45.780Z,7.30
2022-11-26T18:11:15.442Z,5.77
2022-11-26T18:13:42.634Z,7.13
2022-11-26T18:16:09.561Z,6.83
2022-11-26T18:18:36.289Z,5.97
2022-11-26T18:21:03.082Z,6.70
2022-11-26T18:23:29.827Z,6.07
2022-11-26T18:25:56.663Z,7.67
2022-11-26T18:28:25.438Z,8.00
2022-11-26T18:30:57.307Z,6.63
2022-11-26T18:33:24.135Z,6.00
2022-11-26T18:35:50.982Z,11.67
2022-11-26T18:38:17.689Z,8.40
2022-11-26T18:40:44.410Z,10.17
2022-11-26T18:43:11.128Z,12.60
2022-11-26T18:45:41.243Z,8.13
2022-11-26T18:48:08.013Z,8.57
2022-11-26T18:50:34.954Z,9.40
2022-11-26T18:53:01.672Z,8.63
2022-11-26T18:55:28.688Z,10.27
2022-11-26T18:57:55.432Z,7.67
2022-11-26T19:00:22.401Z,8.77
2022-11-26T19:02:49.474Z,5.40
2022-11-26T19:05:16.313Z,6.23
2022-11-26T19:07:43.118Z,7.03
2022-11-26T19:10:10.736Z,8.40
2022-11-26T19:12:37.507Z,9.70
2022-11-26T19:15:04.750Z,10.97
2022-11-26T19:17:31.533Z,8.07
2022-11-26T19:19:58.259Z,9.67
2022-11-26T19:22:24.967Z,11.17
2022-11-26T19:24:52.887Z,12.47
2022-11-26T19:27:19.644Z,12.07
2022-11-26T19:29:46.471Z,12.37
2022-11-26T19:32:13.185Z,12.77
2022-11-26T19:34:40.187Z,14.17
2022-11-26T19:37:07.045Z,12.60
2022-11-26T19:39:34.090Z,9.33
2022-11-26T19:42:01.197Z,13.23
2022-11-26T19:44:27.923Z,15.10
2022-11-26T19:46:54.652Z,13.37
2022-11-26T19:49:21.467Z,12.80
2022-11-26T19:51:48.204Z,14.67
2022-11-26T19:54:15.028Z,13.43
2022-11-26T19:56:43.020Z,11.53
2022-11-26T19:59:09.883Z,13.93
2022-11-26T20:01:36.723Z,13.57
2022-11-26T20:04:06.123Z,11.20
2022-11-26T20:06:34.609Z,17.57
2022-11-26T20:09:02.629Z,12.83
2022-11-26T20:11:29.508Z,13.10
2022-11-26T20:13:58.106Z,15.00
2022-11-26T20:16:29.381Z,13.90
2022-11-26T20:18:56.884Z,12.37
2022-11-26T20:21:26.414Z,13.90
2022-11-26T20:23:57.001Z,12.40
2022-11-26T20:26:30.035Z,14.70
2022-11-26T20:29:00.667Z,14.80
2022-11-26T20:31:28.188Z,14.07
2022-11-26T20:33:55.291Z,17.10
2022-11-26T20:36:23.425Z,24.50
2022-11-26T20:38:54.830Z,20.47
2022-11-26T20:41:22.823Z,17.20
2022-11-26T20:43:54.908Z,18.13
2022-11-26T20:46:25.553Z,15.87
2022-11-26T20:48:52.895Z,13.00
2022-11-26T20:51:22.439Z,15.30
2022-11-26T20:53:51.106Z,13.27
2022-11-26T20:56:22.120Z,13.03
2022-11-26T20:58:50.341Z,13.70
2022-11-26T21:01:24.720Z,13.90
2022-11-26T21:03:52.707Z,11.67
2022-11-26T21:06:27.675Z,12.07
2022-11-26T21:09:01.778Z,10.80
2022-11-26T21:11:29.396Z,10.80
2022-11-26T21:13:58.193Z,10.77
2022-11-26T21:16:25.029Z,10.40
2022-11-26T21:18:56.157Z,11.67
2022-11-26T21:21:24.345Z,15.10
2022-11-26T21:23:51.150Z,12.17
2022-11-26T21:26:23.609Z,13.83
2022-11-26T21:28:58.985Z,12.50
2022-11-26T21:31:27.828Z,18.87
2022-11-26T21:33:57.277Z,16.87
2022-11-26T21:36:25.173Z,17.23
2022-11-26T21:38:52.077Z,15.23
2022-11-26T21:41:20.068Z,12.30
2022-11-26T21:43:48.110Z,10.97
2022-11-26T21:46:24.023Z,15.83
2022-11-26T21:48:54.856Z,9.83
2022-11-26T21:51:25.272Z,10.73
2022-11-26T21:53:54.286Z,9.60
2022-11-26T21:56:23.404Z,8.63
2022-11-26T21:58:50.645Z,8.23
2022-11-26T22:01:34.070Z,11.20
2022-11-26T22:04:17.923Z,8.63
2022-11-26T22:06:46.990Z,8.23
2022-11-26T22:09:15.859Z,10.20
2022-11-26T22:11:44.436Z,12.03
2022-11-26T22:14:14.242Z,11.53
2022-11-26T22:16:41.104Z,10.57
2022-11-26T22:19:09.655Z,13.00
2022-11-26T22:21:39.790Z,11.17
2022-11-26T22:24:11.353Z,14.03
2022-11-26T22:26:38.114Z,12.97
2022-11-26T22:29:05.576Z,14.13
2022-11-26T22:31:35.146Z,12.53
2022-11-26T22:34:22.092Z,10.83
2022-11-26T22:36:49.254Z,8.87
2022-11-26T22:39:18.381Z,9.20
2022-11-26T22:41:46.857Z,10.43
2022-11-26T22:44:15.597Z,7.50
2022-11-26T22:46:42.863Z,8.00
2022-11-26T22:49:15.535Z,10.40
2022-11-26T22:51:42.561Z,8.53
2022-11-26T22:54:12.233Z,8.47
2022-11-26T22:56:39.379Z,7.17
2022-11-26T22:59:07.878Z,8.27
2022-11-26T23:01:36.267Z,7.83
2022-11-26T23:04:06.083Z,7.63
2022-11-26T23:06:35.036Z,6.00
2022-11-26T23:09:03.446Z,7.73
2022-11-26T23:11:33.949Z,6.33
2022-11-26T23:14:07.108Z,8.27
2022-11-26T23:16:34.659Z,6.70
2022-11-26T23:19:01.800Z,8.47
2022-11-26T23:21:31.386Z,7.47
2022-11-26T23:23:58.489Z,7.00
2022-11-26T23:26:28.648Z,9.07
2022-11-26T23:29:00.315Z,7.80
2022-11-26T23:31:35.976Z,7.60
2022-11-26T23:34:04.078Z,9.50
2022-11-26T23:36:31.395Z,9.73
2022-11-26T23:39:00.524Z,9.23
2022-11-26T23:41:27.753Z,8.80
2022-11-26T23:43:54.700Z,7.03
2022-11-26T23:46:24.111Z,10.17
2022-11-26T23:48:51.822Z,7.60
2022-11-26T23:51:25.155Z,8.80
2022-11-26T23:53:54.065Z,7.77
2022-11-26T23:56:23.547Z,8.10
2022-11-26T23:58:52.023Z,8.83
